Time;durP1;ratioP1;P1;durP2;ratioP2;P2;SDS_P1;SDS_P2;PMS_P1;PMS_P2;Temp;Humidity;BMP_temperature;BMP_pressure;BME280_temperature;BME280_humidity;BME280_pressure;Samples;Min_cycle;Max_cycle;Signal;HPM_P1;HPM_P2
2023/04/26 00:01:28;;;;;;;13.55;6.00;;;;;;;6.51;72.73;100087.19;5008583;28;20046;-70
2023/04/26 00:03:56;;;;;;;11.18;5.53;;;;;;;6.52;72.61;100086.34;5010661;28;20576;-69
2023/04/26 00:06:23;;;;;;;10.43;5.03;;;;;;;6.53;72.79;100082.88;5010292;28;20056;-68
2023/04/26 00:08:50;;;;;;;17.05;5.55;;;;;;;6.56;72.62;100081.13;5014171;28;20049;-69
2023/04/26 00:11:18;;;;;;;15.95;5.45;;;;;;;6.56;72.68;100074.19;5010020;28;20847;-69
2023/04/26 00:13:45;;;;;;;13.77;5.07;;;;;;;6.58;72.77;100071.59;5012042;28;20057;-70
2023/04/26 00:16:13;;;;;;;14.05;6.53;;;;;;;6.57;72.84;100067.25;5010709;28;20060;-69
2023/04/26 00:18:40;;;;;;;15.15;6.25;;;;;;;6.57;72.36;100072.44;5010792;28;20135;-69
2023/04/26 00:21:07;;;;;;;22.27;6.00;;;;;;;6.58;72.87;100077.63;5012965;28;20041;-69
2023/04/26 00:23:35;;;;;;;17.60;6.22;;;;;;;6.59;72.79;100078.47;5006571;28;20055;-68
2023/04/26 00:26:02;;;;;;;19.73;6.45;;;;;;;6.59;73.04;100086.25;5013199;28;20045;-69
2023/04/26 00:28:30;;;;;;;15.85;5.20;;;;;;;6.61;72.76;100080.19;5012772;28;20053;-68
2023/04/26 00:30:57;;;;;;;16.08;6.50;;;;;;;6.62;72.88;100073.25;5010259;28;20759;-70
2023/04/26 00:33:24;;;;;;;12.25;5.15;;;;;;;6.61;72.76;100069.78;5011315;28;20386;-69
2023/04/26 00:35:51;;;;;;;19.65;6.82;;;;;;;6.64;73.00;100066.31;5008902;28;20131;-69
2023/04/26 00:38:18;;;;;;;18.67;6.20;;;;;;;6.65;72.98;100071.44;5010032;28;20049;-69
2023/04/26 00:40:45;;;;;;;19.10;5.70;;;;;;;6.66;73.15;100067.13;5010237;28;20064;-69
2023/04/26 00:43:12;;;;;;;17.42;6.30;;;;;;;6.65;73.24;100063.66;5010431;28;20049;-68
2023/04/26 00:45:40;;;;;;;21.38;7.03;;;;;;;6.69;73.06;100072.28;5010502;28;20049;-68
2023/04/26 00:48:07;;;;;;;20.42;7.00;;;;;;;6.71;72.98;100071.38;5009605;28;20049;-69
2023/04/26 00:50:34;;;;;;;13.32;5.80;;;;;;;6.72;72.95;100073.09;5013487;28;20057;-69
2023/04/26 00:53:02;;;;;;;20.20;6.22;;;;;;;6.74;72.77;100073.94;5013499;28;21559;-69
2023/04/26 00:55:30;;;;;;;14.60;5.78;;;;;;;6.74;72.80;100081.72;5014308;28;20049;-69
2023/04/26 00:57:56;;;;;;;19.60;6.50;;;;;;;6.75;73.12;100075.66;5015745;28;20057;-68
2023/04/26 01:00:23;;;;;;;18.08;5.97;;;;;;;6.76;72.85;100066.13;5014840;28;20052;-69
2023/04/26 01:02:52;;;;;;;21.75;5.85;;;;;;;6.77;73.02;100067.81;5013335;28;20041;-68
2023/04/26 01:05:19;;;;;;;17.25;6.60;;;;;;;6.80;73.10;100065.19;5013837;28;20056;-69
2023/04/26 01:07:46;;;;;;;23.77;6.45;;;;;;;6.81;72.82;100066.91;5016455;28;20417;-69
2023/04/26 01:10:13;;;;;;;18.48;6.88;;;;;;;6.82;72.91;100066.03;5015646;28;20050;-71
2023/04/26 01:12:40;;;;;;;19.85;7.45;;;;;;;6.83;72.77;100065.16;5013268;28;20597;-69
2023/04/26 01:15:09;;;;;;;14.95;6.70;;;;;;;6.83;72.65;100059.97;5015213;28;20140;-69
2023/04/26 01:17:37;;;;;;;25.70;8.00;;;;;;;6.83;72.76;100059.97;5014408;28;20053;-69
2023/04/26 01:20:08;;;;;;;19.17;5.90;;;;;;;6.85;72.79;100058.19;5015424;28;20575;-68
2023/04/26 01:22:37;;;;;;;18.05;5.65;;;;;;;6.86;73.10;100059.94;5012618;28;20061;-68
2023/04/26 01:25:07;;;;;;;14.75;6.28;;;;;;;6.87;72.83;100059.03;5014121;28;20053;-69
2023/04/26 01:27:34;;;;;;;28.58;6.32;;;;;;;6.87;73.08;100053.84;5013453;28;20107;-69
2023/04/26 01:30:01;;;;;;;17.17;6.35;;;;;;;6.88;72.88;100059.88;5010851;28;20065;-68
2023/04/26 01:32:28;;;;;;;21.98;7.30;;;;;;;6.88;72.90;100058.16;5012483;28;20056;-69
2023/04/26 01:34:55;;;;;;;24.58;6.55;;;;;;;6.89;73.04;100059.88;5010923;28;20374;-69
2023/04/26 01:37:23;;;;;;;15.57;6.47;;;;;;;6.90;73.03;100061.59;5014513;28;20067;-69
2023/04/26 01:39:52;;;;;;;21.42;7.85;;;;;;;6.92;73.08;100056.38;5015309;28;20100;-69
2023/04/26 01:42:19;;;;;;;22.10;7.60;;;;;;;6.92;73.04;100064.19;5012196;28;20045;-67
2023/04/26 01:44:45;;;;;;;19.70;7.05;;;;;;;6.94;73.17;100065.88;5014998;28;20049;-68
2023/04/26 01:47:12;;;;;;;21.63;7.57;;;;;;;6.92;73.02;100059.84;5014288;28;20049;-71
2023/04/26 01:49:40;;;;;;;21.02;6.70;;;;;;;6.95;72.91;100051.16;5013000;28;20082;-69
2023/04/26 01:52:07;;;;;;;20.63;6.63;;;;;;;6.97;72.93;100054.56;5015581;28;20056;-69
2023/04/26 01:54:34;;;;;;;30.38;8.60;;;;;;;6.96;73.07;100051.09;5012823;28;20053;-68
2023/04/26 01:57:29;;;;;;;26.75;7.78;;;;;;;6.99;73.13;100052.81;5012879;28;20049;-71
2023/04/26 01:59:58;;;;;;;23.90;8.10;;;;;;;6.99;72.76;100060.59;5011055;28;20317;-69
2023/04/26 02:02:25;;;;;;;25.27;8.85;;;;;;;6.99;73.13;100055.41;5014675;28;20160;-68
2023/04/26 02:04:52;;;;;;;19.58;7.38;;;;;;;7.01;73.13;100055.38;5013573;28;20049;-69
2023/04/26 02:07:19;;;;;;;23.45;7.72;;;;;;;7.01;73.09;100051.03;5013535;28;20072;-69
2023/04/26 02:09:46;;;;;;;22.25;8.13;;;;;;;7.03;73.24;100056.19;5010786;28;20053;-69
2023/04/26 02:12:12;;;;;;;20.75;8.38;;;;;;;7.03;72.84;100051.00;5012555;28;20152;-68
2023/04/26 02:14:40;;;;;;;28.52;8.90;;;;;;;7.04;73.28;100052.75;5013339;28;20053;-68
2023/04/26 02:17:07;;;;;;;31.95;10.25;;;;;;;7.04;73.14;100057.94;5015068;28;20119;-69
2023/04/26 02:19:35;;;;;;;25.83;7.95;;;;;;;7.04;73.22;100051.00;5010462;28;20042;-69
2023/04/26 02:22:02;;;;;;;25.52;8.38;;;;;;;7.05;73.04;100054.44;5013076;28;20417;-68
2023/04/26 02:24:29;;;;;;;19.17;7.72;;;;;;;7.05;73.28;100044.91;5011278;28;20123;-68
2023/04/26 02:26:59;;;;;;;23.30;8.27;;;;;;;7.07;73.05;100043.16;5015162;28;20085;-69
2023/04/26 02:29:26;;;;;;;22.13;8.32;;;;;;;7.08;73.02;100051.78;5012795;28;20057;-69
2023/04/26 02:31:54;;;;;;;24.08;9.70;;;;;;;7.07;72.85;100042.31;5010463;28;20065;-69
2023/04/26 02:34:21;;;;;;;22.83;8.18;;;;;;;7.09;72.86;100048.34;5009678;28;20053;-68
2023/04/26 02:36:48;;;;;;;21.13;8.18;;;;;;;7.09;73.49;100046.59;5011567;28;20053;-69
2023/04/26 02:39:15;;;;;;;22.77;8.45;;;;;;;7.09;73.30;100036.22;5013437;28;20562;-69
2023/04/26 02:41:42;;;;;;;24.35;8.18;;;;;;;7.10;73.07;100037.06;5014283;28;20156;-69
2023/04/26 02:44:10;;;;;;;22.02;8.48;;;;;;;7.10;73.24;100035.31;5012705;28;20045;-69
2023/04/26 02:46:37;;;;;;;21.98;8.38;;;;;;;7.11;73.05;100044.81;5008808;28;20183;-70
2023/04/26 02:49:05;;;;;;;27.60;7.15;;;;;;;7.12;72.96;100041.34;5014506;28;20048;-69
2023/04/26 02:51:32;;;;;;;20.83;7.55;;;;;;;7.13;73.11;100047.41;5014184;28;20073;-69
2023/04/26 02:53:59;;;;;;;24.75;7.57;;;;;;;7.14;72.93;100046.50;5013687;28;20107;-69
2023/04/26 02:56:26;;;;;;;25.38;9.63;;;;;;;7.14;72.93;100043.91;5012705;28;20137;-68
2023/04/26 02:58:53;;;;;;;21.05;7.85;;;;;;;7.13;72.89;100037.84;5012474;28;20045;-69
2023/04/26 03:01:20;;;;;;;28.27;9.00;;;;;;;7.10;72.88;100032.72;5009482;28;20049;-69
2023/04/26 03:03:48;;;;;;;23.88;8.45;;;;;;;7.15;72.99;100038.69;5012908;28;20140;-69
2023/04/26 03:06:16;;;;;;;22.42;7.90;;;;;;;7.14;73.09;100034.41;5011479;28;20114;-68
2023/04/26 03:08:43;;;;;;;28.10;9.35;;;;;;;7.16;73.28;100034.34;5012076;28;20446;-69
2023/04/26 03:11:10;;;;;;;20.20;7.03;;;;;;;7.16;73.05;100039.56;5008064;28;20489;-69
2023/04/26 03:13:37;;;;;;;27.23;10.27;;;;;;;7.17;73.31;100043.84;5013485;28;20139;-69
2023/04/26 03:16:04;;;;;;;17.67;7.13;;;;;;;7.16;72.95;100043.00;5009962;28;20056;-70
2023/04/26 03:18:31;;;;;;;23.90;8.55;;;;;;;7.18;73.23;100043.00;5013279;28;20049;-70
2023/04/26 03:20:58;;;;;;;19.98;7.97;;;;;;;7.14;73.29;100037.00;5011040;28;20053;-69
2023/04/26 03:23:27;;;;;;;21.67;7.40;;;;;;;7.18;73.27;100037.78;5011423;28;20045;-69
2023/04/26 03:25:54;;;;;;;24.65;8.18;;;;;;;7.19;73.15;100047.28;5012257;28;20055;-69
2023/04/26 03:28:21;;;;;;;16.75;8.10;;;;;;;7.18;72.90;100041.25;5011999;28;20056;-69
2023/04/26 03:30:48;;;;;;;24.05;7.20;;;;;;;7.20;73.22;100043.84;5011932;28;20064;-69
2023/04/26 03:33:15;;;;;;;15.95;6.93;;;;;;;7.19;72.82;100042.09;5012602;28;20049;-69
2023/04/26 03:35:43;;;;;;;23.48;7.65;;;;;;;7.21;73.01;100050.72;5010292;28;20049;-70
2023/04/26 03:38:10;;;;;;;15.00;6.60;;;;;;;7.19;73.62;100042.94;5012901;28;20425;-69
2023/04/26 03:40:38;;;;;;;20.10;7.82;;;;;;;7.22;72.98;100050.69;5009551;28;20060;-69
2023/04/26 03:43:05;;;;;;;18.30;7.25;;;;;;;7.22;73.21;100042.03;5012012;28;20045;-69
2023/04/26 03:45:32;;;;;;;17.83;7.40;;;;;;;7.19;73.33;100042.94;5009215;28;20053;-69
2023/04/26 03:47:59;;;;;;;12.48;6.32;;;;;;;7.22;72.97;100049.84;5011346;28;20056;-69
2023/04/26 03:50:26;;;;;;;14.27;5.97;;;;;;;7.22;73.13;100047.25;5007622;28;20062;-69
2023/04/26 03:52:53;;;;;;;13.95;6.35;;;;;;;7.22;72.74;100049.84;5012322;28;20100;-69
2023/04/26 03:55:19;;;;;;;13.00;5.80;;;;;;;7.20;72.84;100049.03;5012117;28;20046;-70
2023/04/26 03:57:48;;;;;;;10.10;5.22;;;;;;;7.22;72.91;100057.63;5011952;28;20053;-69
2023/04/26 04:00:15;;;;;;;11.95;5.47;;;;;;;7.22;72.79;100057.63;5011057;28;20150;-70
2023/04/26 04:02:43;;;;;;;15.10;4.80;;;;;;;7.22;72.77;100060.22;5009694;28;20144;-69
2023/04/26 04:05:10;;;;;;;11.55;4.60;;;;;;;7.23;73.06;100061.97;5011322;28;20065;-69
2023/04/26 04:07:37;;;;;;;9.70;4.43;;;;;;;7.24;72.89;100060.22;5011379;28;20049;-69
2023/04/26 04:10:04;;;;;;;6.88;3.45;;;;;;;7.22;72.84;100057.63;5011750;28;20067;-69
2023/04/26 04:12:31;;;;;;;7.97;3.95;;;;;;;7.22;72.53;100062.81;5009632;28;20062;-69
2023/04/26 04:14:59;;;;;;;7.10;3.35;;;;;;;7.22;72.89;100062.81;5010233;28;20071;-69
2023/04/26 04:17:26;;;;;;;8.38;3.63;;;;;;;7.21;72.30;100058.53;5010907;28;20050;-69
2023/04/26 04:19:53;;;;;;;6.70;3.47;;;;;;;7.23;72.74;100061.97;5009872;28;20052;-69
2023/04/26 04:22:20;;;;;;;6.93;3.60;;;;;;;7.22;72.87;100058.47;5009503;28;20062;-69
2023/04/26 04:24:47;;;;;;;7.30;4.18;;;;;;;7.24;72.67;100048.06;5009314;28;20053;-69
2023/04/26 04:27:15;;;;;;;11.23;3.63;;;;;;;7.24;72.50;100055.03;5009778;28;20067;-69
2023/04/26 04:29:41;;;;;;;7.57;3.20;;;;;;;7.24;72.59;100045.47;5009843;28;20053;-69
2023/04/26 04:32:10;;;;;;;6.72;3.65;;;;;;;7.24;72.56;100048.06;5009595;28;20049;-69
2023/04/26 04:34:37;;;;;;;7.93;3.17;;;;;;;7.24;72.65;100045.47;4982786;28;21458;-69
2023/04/26 04:37:04;;;;;;;7.00;2.78;;;;;;;7.26;72.52;100054.13;5010971;28;20057;-69
2023/04/26 04:39:31;;;;;;;10.80;3.42;;;;;;;7.26;72.61;100050.63;5011664;28;20057;-69
2023/04/26 04:41:59;;;;;;;6.30;3.17;;;;;;;7.27;72.42;100061.00;5010184;28;20053;-71
2023/04/26 04:44:26;;;;;;;7.25;3.28;;;;;;;7.27;72.58;100055.81;5012914;28;20502;-69
2023/04/26 04:46:53;;;;;;;7.07;2.60;;;;;;;7.28;72.74;100062.72;5008633;28;20682;-69
2023/04/26 04:49:23;;;;;;;6.53;2.58;;;;;;;7.30;72.78;100054.91;5010054;28;20064;-68
2023/04/26 04:51:50;;;;;;;5.45;2.80;;;;;;;7.30;72.66;100060.97;5012902;28;20053;-69
2023/04/26 04:54:18;;;;;;;8.55;3.60;;;;;;;7.30;72.62;100063.56;5010586;28;20049;-69
2023/04/26 04:56:45;;;;;;;10.57;3.13;;;;;;;7.32;72.53;100059.22;5012810;28;20049;-69
2023/04/26 04:59:12;;;;;;;4.93;2.38;;;;;;;7.33;72.55;100058.31;5009820;28;20045;-70
2023/04/26 05:01:39;;;;;;;6.88;2.65;;;;;;;7.34;72.19;100060.03;5008871;28;20054;-70
2023/04/26 05:04:06;;;;;;;8.23;2.67;;;;;;;7.37;72.47;100065.19;5010875;28;20524;-70
2023/04/26 05:06:35;;;;;;;6.30;2.47;;;;;;;7.37;72.22;100070.38;5009455;28;20080;-71
2023/04/26 05:09:04;;;;;;;4.97;1.63;;;;;;;7.39;72.39;100067.75;5007881;28;20107;-70
2023/04/26 05:11:31;;;;;;;2.17;1.90;;;;;;;7.40;72.56;100072.94;5016769;28;20605;-70
2023/04/26 05:13:58;;;;;;;4.50;2.40;;;;;;;7.43;72.08;100075.47;5016056;28;20107;-69
2023/04/26 05:16:25;;;;;;;4.40;1.55;;;;;;;7.44;72.14;100073.72;5014373;28;20057;-70
2023/04/26 05:18:52;;;;;;;5.10;1.67;;;;;;;7.45;72.04;100070.22;5013702;28;20049;-71
2023/04/26 05:21:19;;;;;;;2.25;1.45;;;;;;;7.43;72.08;100072.88;5009364;28;20056;-70
2023/04/26 05:23:47;;;;;;;5.75;1.50;;;;;;;7.49;72.15;100077.09;5019685;28;20675;-69
2023/04/26 05:26:16;;;;;;;3.08;1.35;;;;;;;7.50;71.95;100078.81;5015314;28;20405;-70
2023/04/26 05:28:43;;;;;;;6.15;1.15;;;;;;;7.50;71.81;100072.75;5017616;28;20038;-71
2023/04/26 05:31:10;;;;;;;2.97;1.13;;;;;;;7.51;72.12;100079.66;5018376;28;20060;-70
2023/04/26 05:33:37;;;;;;;3.97;1.65;;;;;;;7.51;72.09;100079.66;5020185;28;20904;-69
2023/04/26 05:36:05;;;;;;;2.80;0.90;;;;;;;7.53;71.67;100080.50;5013983;28;20042;-70
2023/04/26 05:38:32;;;;;;;3.22;0.93;;;;;;;7.54;72.01;100085.69;5019776;28;20045;-70
2023/04/26 05:41:01;;;;;;;9.48;2.13;;;;;;;7.56;71.41;100096.91;5021054;28;20057;-70
2023/04/26 05:43:28;;;;;;;2.35;0.88;;;;;;;7.57;71.50;100092.56;5019758;28;20046;-71
2023/04/26 05:45:56;;;;;;;1.65;0.90;;;;;;;7.60;71.33;100089.94;5015034;28;20050;-70
2023/04/26 05:48:25;;;;;;;0.98;0.70;;;;;;;7.61;71.76;100089.03;5019095;28;20046;-71
2023/04/26 05:50:52;;;;;;;1.08;0.63;;;;;;;7.63;71.45;100092.47;5014295;28;20057;-71
2023/04/26 05:53:19;;;;;;;3.88;0.60;;;;;;;7.64;71.74;100087.22;5023592;28;20049;-70
2023/04/26 05:55:46;;;;;;;1.77;0.50;;;;;;;7.68;71.35;100092.38;5018342;28;20716;-71
2023/04/26 05:58:14;;;;;;;1.30;0.50;;;;;;;7.65;71.60;100078.53;5018546;28;20045;-71
2023/04/26 06:00:42;;;;;;;1.77;0.45;;;;;;;7.73;71.49;100088.81;5016961;28;20494;-71
2023/04/26 06:03:09;;;;;;;1.45;0.40;;;;;;;7.74;70.81;100087.94;5017021;28;20056;-70
2023/04/26 06:05:37;;;;;;;1.23;0.60;;;;;;;7.80;71.17;100093.03;5018558;28;20410;-70
2023/04/26 06:08:05;;;;;;;2.17;0.30;;;;;;;7.84;71.21;100099.03;5013816;28;20041;-70
2023/04/26 06:10:31;;;;;;;0.65;0.30;;;;;;;7.87;71.28;100089.41;5015020;28;20068;-72
2023/04/26 06:12:58;;;;;;;0.95;0.30;;;;;;;7.91;71.02;100089.34;5013777;28;20052;-71
2023/04/26 06:15:27;;;;;;;1.55;0.30;;;;;;;7.96;70.99;100079.72;5020075;28;20045;-71
2023/04/26 06:17:54;;;;;;;2.47;0.20;;;;;;;7.99;70.36;100080.53;5017716;28;20057;-71
2023/04/26 06:20:21;;;;;;;0.52;0.20;;;;;;;8.04;71.06;100077.84;5017707;28;20060;-71
2023/04/26 06:22:49;;;;;;;0.43;0.20;;;;;;;8.07;70.76;100065.63;5016307;28;20057;-71
2023/04/26 06:25:16;;;;;;;0.43;0.20;;;;;;;8.13;69.71;100067.25;5017527;28;20053;-71
2023/04/26 06:27:43;;;;;;;0.30;0.15;;;;;;;8.17;69.60;100068.94;5016354;28;20060;-73
2023/04/26 06:30:10;;;;;;;0.20;0.20;;;;;;;8.22;69.86;100069.66;5015041;28;20041;-71
2023/04/26 06:32:41;;;;;;;2.47;0.20;;;;;;;8.28;69.94;100068.69;5020708;28;20509;-71
2023/04/26 06:35:09;;;;;;;1.85;0.10;;;;;;;8.33;69.76;100078.13;5018644;28;20716;-71
2023/04/26 06:37:37;;;;;;;0.10;0.10;;;;;;;8.39;69.56;100076.31;5018024;28;20077;-71
2023/04/26 06:40:05;;;;;;;0.10;0.10;;;;;;;8.44;69.01;100080.53;5017295;28;20049;-71
2023/04/26 06:42:32;;;;;;;0.73;0.10;;;;;;;8.51;69.02;100076.06;5016510;28;20045;-71
2023/04/26 06:44:59;;;;;;;0.20;0.10;;;;;;;8.54;69.04;100082.06;5019079;28;20518;-71
2023/04/26 06:47:26;;;;;;;1.85;0.05;;;;;;;8.59;68.52;100079.34;5019931;28;20557;-71
2023/04/26 06:49:55;;;;;;;0.10;0.10;;;;;;;8.63;68.00;100086.22;5019513;28;20525;-71
2023/04/26 06:52:22;;;;;;;3.75;0.10;;;;;;;8.67;68.28;100089.59;5017625;28;20041;-71
2023/04/26 06:54:49;;;;;;;0.00;0.00;;;;;;;8.70;68.25;100085.19;5017533;28;20060;-71
2023/04/26 06:57:16;;;;;;;0.10;0.10;;;;;;;8.74;67.62;100088.59;5011849;28;20048;-71
2023/04/26 06:59:42;;;;;;;0.60;0.00;;;;;;;8.77;67.79;100083.31;5018912;28;20049;-71
2023/04/26 07:02:09;;;;;;;0.00;0.00;;;;;;;8.82;67.66;100088.41;5022767;28;20045;-70
2023/04/26 07:04:36;;;;;;;1.17;0.10;;;;;;;8.85;67.25;100093.53;5015922;28;20063;-72
2023/04/26 07:07:05;;;;;;;1.85;0.00;;;;;;;8.89;67.02;100095.22;5018682;28;20052;-71
2023/04/26 07:09:31;;;;;;;0.00;0.00;;;;;;;8.93;66.56;100102.91;5014904;28;20133;-72
2023/04/26 07:11:58;;;;;;;0.00;0.00;;;;;;;8.97;66.22;100106.31;5018359;28;20072;-71
2023/04/26 07:14:25;;;;;;;0.80;0.00;;;;;;;9.01;66.40;100103.59;5015228;28;20045;-71
2023/04/26 07:16:52;;;;;;;0.10;0.00;;;;;;;9.06;66.29;100111.31;5016553;28;20463;-71
2023/04/26 07:19:19;;;;;;;0.15;0.10;;;;;;;9.08;66.78;100109.53;5015964;28;20046;-71
2023/04/26 07:21:46;;;;;;;0.88;0.00;;;;;;;9.11;66.31;100109.47;5023879;28;20062;-71
2023/04/26 07:24:14;;;;;;;0.00;0.00;;;;;;;9.18;66.26;100111.00;5018095;28;20046;-70
2023/04/26 07:26:41;;;;;;;0.10;0.00;;;;;;;9.22;66.22;100119.63;5018265;28;20054;-71
2023/04/26 07:29:08;;;;;;;0.52;0.00;;;;;;;9.27;65.82;100125.56;5014740;28;20046;-71
2023/04/26 07:31:36;;;;;;;2.25;0.10;;;;;;;9.30;65.77;100124.66;5019936;28;20045;-71
2023/04/26 07:34:02;;;;;;;0.32;0.00;;;;;;;9.34;65.50;100127.16;5017731;28;20041;-70
2023/04/26 07:36:30;;;;;;;0.10;0.03;;;;;;;9.37;64.84;100136.66;5017621;28;20450;-71
2023/04/26 07:38:57;;;;;;;0.75;0.00;;;;;;;9.40;64.95;100139.19;5018719;28;20128;-71
2023/04/26 07:41:25;;;;;;;0.20;0.10;;;;;;;9.42;65.09;100138.25;5018306;28;20071;-71
2023/04/26 07:43:52;;;;;;;1.27;0.00;;;;;;;9.46;65.05;100141.66;5019832;28;20050;-71
2023/04/26 07:46:19;;;;;;;0.98;0.10;;;;;;;9.49;64.93;100152.00;5018021;28;20071;-71
2023/04/26 07:48:46;;;;;;;0.00;0.00;;;;;;;9.51;64.26;100152.84;5021477;28;20059;-71
2023/04/26 07:51:13;;;;;;;1.50;0.10;;;;;;;9.54;64.63;100150.16;5017325;28;20054;-71
2023/04/26 07:53:41;;;;;;;1.17;0.10;;;;;;;9.56;64.79;100155.31;5017372;28;20054;-71
2023/04/26 07:56:09;;;;;;;0.00;0.00;;;;;;;9.58;64.30;100156.13;5018902;28;20041;-71
2023/04/26 07:58:39;;;;;;;1.75;0.00;;;;;;;9.59;64.07;100158.72;5021665;28;20675;-71
2023/04/26 08:01:06;;;;;;;1.10;0.08;;;;;;;9.61;63.81;100166.50;5013447;28;20486;-71
2023/04/26 08:03:33;;;;;;;0.15;0.00;;;;;;;9.61;64.41;100167.34;5015778;28;20104;-71
2023/04/26 08:06:00;;;;;;;0.05;0.00;;;;;;;9.62;63.97;100169.06;5019614;28;20513;-71
2023/04/26 08:08:27;;;;;;;0.10;0.00;;;;;;;9.63;64.17;100162.94;5015092;28;20045;-71
2023/04/26 08:10:55;;;;;;;0.13;0.08;;;;;;;9.63;64.60;100165.56;5019770;28;20045;-71
2023/04/26 08:13:22;;;;;;;0.00;0.00;;;;;;;9.65;64.56;100169.00;5018474;28;20100;-71
2023/04/26 08:15:50;;;;;;;1.65;0.00;;;;;;;9.67;63.65;100168.94;5019090;28;20100;-71
2023/04/26 08:18:17;;;;;;;1.30;0.00;;;;;;;9.67;63.67;100174.16;5013586;28;20989;-71
2023/04/26 08:20:44;;;;;;;0.60;0.00;;;;;;;9.68;63.63;100174.13;5020362;28;20056;-71
2023/04/26 08:23:11;;;;;;;0.10;0.00;;;;;;;9.69;63.38;100178.44;5016170;28;20129;-71
2023/04/26 08:25:38;;;;;;;1.85;0.00;;;;;;;9.66;63.34;100165.47;5015013;28;20053;-69
2023/04/26 08:28:06;;;;;;;0.00;0.00;;;;;;;9.73;62.81;100180.97;5018998;28;20048;-70
2023/04/26 08:30:33;;;;;;;2.45;0.00;;;;;;;9.75;62.35;100179.19;5017931;28;20414;-70
2023/04/26 08:33:02;;;;;;;0.80;0.00;;;;;;;9.74;63.27;100175.75;5017863;28;20050;-70
2023/04/26 08:35:29;;;;;;;0.20;0.00;;;;;;;9.75;62.19;100180.03;5016018;28;20042;-69
2023/04/26 08:37:55;;;;;;;0.05;0.00;;;;;;;9.76;62.76;100188.72;5017950;28;20038;-73
2023/04/26 08:40:25;;;;;;;0.63;0.00;;;;;;;9.78;61.87;100189.56;5015304;28;20064;-69
2023/04/26 08:42:52;;;;;;;0.00;0.00;;;;;;;9.81;61.86;100186.88;5019053;28;20061;-71
2023/04/26 08:45:20;;;;;;;0.00;0.00;;;;;;;9.83;61.47;100192.91;5018156;28;20096;-71
2023/04/26 08:47:49;;;;;;;0.00;0.00;;;;;;;9.84;61.81;100195.47;5018844;28;20093;-72
2023/04/26 08:50:20;;;;;;;0.00;0.00;;;;;;;9.87;61.71;100191.94;5014481;28;20107;-69
2023/04/26 08:52:50;;;;;;;0.57;0.00;;;;;;;9.90;61.31;100186.63;5016506;28;20066;-71
2023/04/26 08:55:18;;;;;;;1.75;0.00;;;;;;;9.93;60.52;100181.34;5012168;28;20112;-72
2023/04/26 08:57:47;;;;;;;0.00;0.00;;;;;;;9.95;61.24;100176.09;5021737;28;20104;-76
2023/04/26 09:00:15;;;;;;;0.00;0.00;;;;;;;10.02;61.23;100173.28;5015007;28;20123;-71
2023/04/26 09:02:46;;;;;;;0.00;0.00;;;;;;;10.07;60.95;100171.41;5015492;28;20054;-72
2023/04/26 09:05:13;;;;;;;0.10;0.00;;;;;;;10.11;60.58;100170.44;5017136;28;20120;-72
2023/04/26 09:07:45;;;;;;;0.03;0.00;;;;;;;10.17;60.07;100165.97;5010697;28;20050;-71
2023/04/26 09:10:13;;;;;;;0.00;0.00;;;;;;;10.20;60.04;100174.56;5015675;28;20045;-71
2023/04/26 09:12:40;;;;;;;0.00;0.00;;;;;;;10.24;60.00;100180.53;5020772;28;20059;-71
2023/04/26 09:15:09;;;;;;;0.00;0.00;;;;;;;10.25;59.77;100180.53;5023984;28;20461;-72
2023/04/26 09:17:37;;;;;;;0.00;0.00;;;;;;;10.27;59.13;100181.34;5022585;28;20054;-71
2023/04/26 09:20:19;;;;;;;1.55;0.00;;;;;;;10.33;59.78;100175.97;5019537;28;20580;-69
2023/04/26 09:22:48;;;;;;;0.00;0.00;;;;;;;10.33;59.54;100175.97;5016757;28;20049;-72
2023/04/26 09:25:17;;;;;;;0.03;0.00;;;;;;;10.34;59.19;100172.47;5020292;28;20048;-72
2023/04/26 09:27:45;;;;;;;0.00;0.00;;;;;;;10.34;59.37;100180.28;5021438;28;20054;-72
2023/04/26 09:30:14;;;;;;;0.00;0.00;;;;;;;10.35;59.72;100186.38;5020176;28;20054;-72
2023/04/26 09:32:46;;;;;;;0.00;0.00;;;;;;;10.34;59.39;100179.44;5023087;28;20132;-72
2023/04/26 09:35:25;;;;;;;0.10;0.00;;;;;;;10.41;59.48;100183.59;5022106;28;20041;-72
2023/04/26 09:37:55;;;;;;;1.55;0.00;;;;;;;10.42;59.10;100184.47;5020141;28;20054;-71
2023/04/26 09:40:23;;;;;;;1.38;0.00;;;;;;;10.43;58.66;100176.56;5015505;28;20160;-71
2023/04/26 09:43:01;;;;;;;2.40;0.00;;;;;;;10.42;58.55;100177.50;5021297;28;20414;-72
2023/04/26 09:45:29;;;;;;;0.10;0.00;;;;;;;10.42;58.37;100171.41;5020313;28;20041;-72
2023/04/26 09:48:12;;;;;;;0.63;0.20;;;;;;;10.40;58.43;100171.44;5020096;28;20127;-71
2023/04/26 09:50:39;;;;;;;0.00;0.00;;;;;;;10.42;58.17;100172.25;5021192;28;20519;-69
2023/04/26 09:53:07;;;;;;;0.00;0.00;;;;;;;10.46;58.04;100178.25;5019150;28;20398;-69
2023/04/26 09:55:34;;;;;;;0.00;0.00;;;;;;;10.46;58.36;100179.09;5016491;28;20081;-69
2023/04/26 09:58:08;;;;;;;3.55;0.32;;;;;;;10.50;58.60;100179.88;5019155;28;20059;-73
2023/04/26 10:00:39;;;;;;;0.00;0.00;;;;;;;10.53;58.32;100183.28;5020252;28;20041;-70
2023/04/26 10:03:08;;;;;;;0.00;0.00;;;;;;;10.57;58.56;100184.03;5022820;28;20737;-72
2023/04/26 10:05:36;;;;;;;0.00;0.00;;;;;;;10.60;57.28;100185.72;5024776;28;20046;-71
2023/04/26 10:08:03;;;;;;;0.00;0.00;;;;;;;10.61;57.56;100195.25;5020633;28;20049;-71
2023/04/26 10:10:32;;;;;;;0.90;0.00;;;;;;;10.61;57.28;100188.25;5024030;28;20045;-71
2023/04/26 10:12:59;;;;;;;0.00;0.00;;;;;;;10.66;57.41;100191.59;5014582;28;20064;-72
2023/04/26 10:15:27;;;;;;;0.03;0.00;;;;;;;10.70;56.51;100188.03;5020932;28;20057;-71
2023/04/26 10:17:54;;;;;;;0.00;0.00;;;;;;;10.73;56.56;100187.06;5017703;28;20045;-71
2023/04/26 10:20:24;;;;;;;0.00;0.00;;;;;;;10.75;56.34;100186.13;5021718;28;20069;-71
2023/04/26 10:22:53;;;;;;;0.00;0.00;;;;;;;10.78;56.68;100188.63;5022176;28;20053;-71
2023/04/26 10:25:20;;;;;;;0.00;0.00;;;;;;;10.80;56.14;100178.16;5019151;28;20140;-71
2023/04/26 10:27:49;;;;;;;0.00;0.00;;;;;;;10.84;55.84;100187.59;5020529;28;20045;-72
2023/04/26 10:30:18;;;;;;;0.57;0.00;;;;;;;10.84;56.03;100198.06;5015760;28;20057;-71
2023/04/26 10:33:13;;;;;;;0.22;0.00;;;;;;;10.88;55.90;100197.09;5017118;28;20071;-71
2023/04/26 10:36:01;;;;;;;0.00;0.00;;;;;;;10.88;55.96;100186.63;4986279;28;20053;-71
2023/04/26 10:38:27;;;;;;;0.00;0.00;;;;;;;10.88;55.94;100191.84;5020744;28;20042;-71
2023/04/26 10:40:55;;;;;;;0.00;0.00;;;;;;;10.88;55.96;100180.56;5021050;28;20505;-71
2023/04/26 10:43:30;;;;;;;0.00;0.00;;;;;;;10.87;55.33;100179.72;5021759;28;20120;-71
2023/04/26 10:45:57;;;;;;;;;;;;;;;10.88;56.12;100194.47;5019144;28;20053;-68
2023/04/26 10:48:29;;;;;;;0.10;0.00;;;;;;;10.87;55.74;100189.28;5013599;28;19980;-70
2023/04/26 10:51:11;;;;;;;0.00;0.00;;;;;;;10.87;55.56;100205.84;5016471;28;20107;-70
2023/04/26 10:53:58;;;;;;;0.00;0.00;;;;;;;10.84;55.05;100200.66;5019831;28;20498;-69
2023/04/26 10:56:58;;;;;;;0.00;0.00;;;;;;;10.84;55.07;100203.28;5022026;28;20053;-68
2023/04/26 10:59:27;;;;;;;0.00;0.00;;;;;;;10.82;54.66;100202.50;4933287;29;20047;-68
2023/04/26 11:01:54;;;;;;;0.00;0.00;;;;;;;10.83;54.52;100201.56;4939367;29;20051;-69
2023/04/26 11:04:21;;;;;;;1.55;0.00;;;;;;;10.84;54.39;100210.28;4974057;28;20052;-68
2023/04/26 11:06:48;;;;;;;0.35;0.00;;;;;;;10.83;53.68;100204.19;5019384;28;20037;-69
2023/04/26 11:09:35;;;;;;;0.00;0.00;;;;;;;10.84;53.83;100210.28;5017106;28;20049;-69
2023/04/26 11:12:05;;;;;;;0.40;0.08;;;;;;;10.82;54.19;100218.16;5021912;28;20053;-70
2023/04/26 11:14:34;;;;;;;0.00;0.00;;;;;;;10.82;54.11;100223.38;5021336;28;20486;-69
2023/04/26 11:17:04;;;;;;;0.00;0.00;;;;;;;10.81;53.27;100221.66;5015603;28;20042;-69
2023/04/26 11:19:31;;;;;;;0.00;0.00;;;;;;;10.81;53.85;100221.66;5020125;28;20563;-70
2023/04/26 11:22:00;;;;;;;1.77;0.00;;;;;;;10.80;53.79;100210.34;5019199;28;20046;-70
2023/04/26 11:24:28;;;;;;;0.10;0.00;;;;;;;10.82;53.59;100222.53;5021145;28;20052;-70
2023/04/26 11:26:55;;;;;;;0.10;0.00;;;;;;;10.82;52.77;100223.38;5018426;28;20818;-68
2023/04/26 11:29:22;;;;;;;0.20;0.00;;;;;;;10.82;53.11;100220.78;5020273;28;20045;-69
2023/04/26 11:31:54;;;;;;;0.00;0.00;;;;;;;10.82;52.66;100228.63;5018469;28;20057;-69
2023/04/26 11:34:23;;;;;;;0.10;0.00;;;;;;;10.81;52.58;100229.50;5018869;28;20155;-70